sensor_id;sensor_type;location;lat;lon;timestamp;P1;durP1;ratioP1;P2;durP2;ratioP2
50781;SDS011;36749;37.428;-121.972;2023-02-28T00:01:04;6.07;;;1.35;;
50781;SDS011;36749;37.428;-121.972;2023-02-28T00:03:30;6.22;;;2.00;;
50781;SDS011;36749;37.428;-121.972;2023-02-28T00:06:03;4.07;;;1.40;;
50781;SDS011;36749;37.428;-121.972;2023-02-28T00:08:30;3.08;;;1.35;;
50781;SDS011;36749;37.428;-121.972;2023-02-28T00:11:00;10.07;;;1.83;;
50781;SDS011;36749;37.428;-121.972;2023-02-28T00:13:30;11.45;;;2.60;;
50781;SDS011;36749;37.428;-121.972;2023-02-28T00:16:02;4.72;;;1.85;;
50781;SDS011;36749;37.428;-121.972;2023-02-28T00:18:30;6.60;;;1.90;;
50781;SDS011;36749;37.428;-121.972;2023-02-28T00:20:56;5.63;;;1.70;;
50781;SDS011;36749;37.428;-121.972;2023-02-28T00:23:23;7.00;;;1.48;;
50781;SDS011;36749;37.428;-121.972;2023-02-28T00:25:50;6.50;;;1.55;;
50781;SDS011;36749;37.428;-121.972;2023-02-28T00:28:17;6.03;;;1.98;;
50781;SDS011;36749;37.428;-121.972;2023-02-28T00:30:43;10.70;;;2.30;;
50781;SDS011;36749;37.428;-121.972;2023-02-28T00:33:10;6.63;;;1.70;;
50781;SDS011;36749;37.428;-121.972;2023-02-28T00:35:36;5.60;;;1.40;;
50781;SDS011;36749;37.428;-121.972;2023-02-28T00:38:02;6.40;;;1.55;;
50781;SDS011;36749;37.428;-121.972;2023-02-28T00:40:29;1.95;;;1.40;;
50781;SDS011;36749;37.428;-121.972;2023-02-28T00:42:55;8.32;;;2.03;;
50781;SDS011;36749;37.428;-121.972;2023-02-28T00:45:21;6.18;;;2.03;;
50781;SDS011;36749;37.428;-121.972;2023-02-28T00:47:47;7.53;;;1.60;;
50781;SDS011;36749;37.428;-121.972;2023-02-28T00:50:18;5.53;;;1.45;;
50781;SDS011;36749;37.428;-121.972;2023-02-28T00:52:46;7.18;;;1.90;;
50781;SDS011;36749;37.428;-121.972;2023-02-28T00:55:13;9.23;;;2.20;;
50781;SDS011;36749;37.428;-121.972;2023-02-28T00:57:39;13.02;;;2.35;;
50781;SDS011;36749;37.428;-121.972;2023-02-28T01:00:06;10.50;;;2.88;;
50781;SDS011;36749;37.428;-121.972;2023-02-28T01:02:34;17.15;;;2.65;;
50781;SDS011;36749;37.428;-121.972;2023-02-28T01:05:00;10.15;;;2.53;;
50781;SDS011;36749;37.428;-121.972;2023-02-28T01:07:26;11.88;;;2.50;;
50781;SDS011;36749;37.428;-121.972;2023-02-28T01:09:52;13.88;;;2.60;;
50781;SDS011;36749;37.428;-121.972;2023-02-28T01:12:19;8.60;;;2.20;;
50781;SDS011;36749;37.428;-121.972;2023-02-28T01:14:45;15.90;;;2.30;;
50781;SDS011;36749;37.428;-121.972;2023-02-28T01:17:11;10.75;;;2.38;;
50781;SDS011;36749;37.428;-121.972;2023-02-28T01:19:37;9.90;;;2.38;;
50781;SDS011;36749;37.428;-121.972;2023-02-28T01:22:04;6.22;;;1.75;;
50781;SDS011;36749;37.428;-121.972;2023-02-28T01:24:31;6.30;;;2.40;;
50781;SDS011;36749;37.428;-121.972;2023-02-28T01:26:58;12.25;;;2.60;;
50781;SDS011;36749;37.428;-121.972;2023-02-28T01:29:24;8.75;;;2.85;;
50781;SDS011;36749;37.428;-121.972;2023-02-28T01:31:51;9.63;;;2.65;;
50781;SDS011;36749;37.428;-121.972;2023-02-28T01:34:17;10.10;;;2.42;;
50781;SDS011;36749;37.428;-121.972;2023-02-28T01:36:44;12.13;;;2.70;;
50781;SDS011;36749;37.428;-121.972;2023-02-28T01:39:11;12.43;;;2.40;;
50781;SDS011;36749;37.428;-121.972;2023-02-28T01:41:38;15.82;;;2.67;;
50781;SDS011;36749;37.428;-121.972;2023-02-28T01:44:06;13.23;;;3.00;;
50781;SDS011;36749;37.428;-121.972;2023-02-28T01:46:52;12.88;;;3.03;;
50781;SDS011;36749;37.428;-121.972;2023-02-28T01:49:18;11.82;;;3.15;;
50781;SDS011;36749;37.428;-121.972;2023-02-28T01:51:46;12.75;;;3.10;;
50781;SDS011;36749;37.428;-121.972;2023-02-28T01:54:20;14.90;;;3.53;;
50781;SDS011;36749;37.428;-121.972;2023-02-28T01:57:00;11.68;;;2.65;;
50781;SDS011;36749;37.428;-121.972;2023-02-28T01:59:34;14.02;;;2.67;;
50781;SDS011;36749;37.428;-121.972;2023-02-28T02:02:05;7.78;;;2.40;;
50781;SDS011;36749;37.428;-121.972;2023-02-28T02:04:34;14.32;;;2.55;;
50781;SDS011;36749;37.428;-121.972;2023-02-28T02:07:04;10.70;;;3.10;;
50781;SDS011;36749;37.428;-121.972;2023-02-28T02:09:30;11.57;;;2.45;;
50781;SDS011;36749;37.428;-121.972;2023-02-28T02:11:57;16.58;;;4.03;;
50781;SDS011;36749;37.428;-121.972;2023-02-28T02:17:39;8.57;;;2.10;;
50781;SDS011;36749;37.428;-121.972;2023-02-28T02:28:19;17.00;;;2.63;;
50781;SDS011;36749;37.428;-121.972;2023-02-28T02:38:56;9.88;;;2.67;;
50781;SDS011;36749;37.428;-121.972;2023-02-28T02:41:39;16.10;;;3.22;;
50781;SDS011;36749;37.428;-121.972;2023-02-28T02:46:51;15.20;;;2.78;;
50781;SDS011;36749;37.428;-121.972;2023-02-28T02:49:39;13.90;;;4.43;;
50781;SDS011;36749;37.428;-121.972;2023-02-28T02:52:09;15.95;;;3.55;;
50781;SDS011;36749;37.428;-121.972;2023-02-28T02:54:38;25.60;;;3.38;;
50781;SDS011;36749;37.428;-121.972;2023-02-28T02:57:07;15.43;;;3.47;;
50781;SDS011;36749;37.428;-121.972;2023-02-28T02:59:37;13.70;;;3.55;;
50781;SDS011;36749;37.428;-121.972;2023-02-28T03:02:06;12.88;;;3.17;;
50781;SDS011;36749;37.428;-121.972;2023-02-28T03:04:36;12.45;;;3.58;;
50781;SDS011;36749;37.428;-121.972;2023-02-28T03:07:09;9.52;;;2.90;;
50781;SDS011;36749;37.428;-121.972;2023-02-28T03:09:35;12.65;;;4.40;;
50781;SDS011;36749;37.428;-121.972;2023-02-28T03:12:02;11.75;;;2.55;;
50781;SDS011;36749;37.428;-121.972;2023-02-28T03:30:24;12.85;;;3.40;;
50781;SDS011;36749;37.428;-121.972;2023-02-28T03:33:08;9.07;;;3.08;;
50781;SDS011;36749;37.428;-121.972;2023-02-28T03:35:43;9.38;;;3.50;;
50781;SDS011;36749;37.428;-121.972;2023-02-28T03:38:21;13.63;;;4.13;;
50781;SDS011;36749;37.428;-121.972;2023-02-28T03:41:05;11.40;;;3.97;;
50781;SDS011;36749;37.428;-121.972;2023-02-28T03:43:40;14.48;;;4.30;;
50781;SDS011;36749;37.428;-121.972;2023-02-28T03:46:09;16.92;;;4.65;;
50781;SDS011;36749;37.428;-121.972;2023-02-28T03:48:45;15.35;;;4.30;;
50781;SDS011;36749;37.428;-121.972;2023-02-28T03:51:18;14.20;;;3.05;;
50781;SDS011;36749;37.428;-121.972;2023-02-28T03:54:05;21.67;;;3.85;;
50781;SDS011;36749;37.428;-121.972;2023-02-28T03:56:38;14.35;;;4.00;;
50781;SDS011;36749;37.428;-121.972;2023-02-28T04:01:47;13.15;;;4.05;;
50781;SDS011;36749;37.428;-121.972;2023-02-28T04:04:15;11.85;;;3.70;;
50781;SDS011;36749;37.428;-121.972;2023-02-28T04:06:42;14.05;;;3.85;;
50781;SDS011;36749;37.428;-121.972;2023-02-28T04:09:10;14.52;;;4.40;;
50781;SDS011;36749;37.428;-121.972;2023-02-28T04:11:40;15.77;;;3.67;;
50781;SDS011;36749;37.428;-121.972;2023-02-28T04:14:16;14.23;;;4.00;;
50781;SDS011;36749;37.428;-121.972;2023-02-28T04:16:42;18.05;;;5.65;;
50781;SDS011;36749;37.428;-121.972;2023-02-28T04:19:09;19.98;;;5.03;;
50781;SDS011;36749;37.428;-121.972;2023-02-28T04:21:38;14.68;;;4.40;;
50781;SDS011;36749;37.428;-121.972;2023-02-28T04:24:10;15.05;;;5.57;;
50781;SDS011;36749;37.428;-121.972;2023-02-28T04:26:47;16.17;;;5.60;;
50781;SDS011;36749;37.428;-121.972;2023-02-28T04:29:21;21.27;;;5.90;;
50781;SDS011;36749;37.428;-121.972;2023-02-28T04:31:47;15.93;;;5.10;;
50781;SDS011;36749;37.428;-121.972;2023-02-28T04:34:13;13.48;;;3.80;;
50781;SDS011;36749;37.428;-121.972;2023-02-28T04:36:40;16.75;;;4.45;;
50781;SDS011;36749;37.428;-121.972;2023-02-28T04:39:06;12.30;;;3.42;;
50781;SDS011;36749;37.428;-121.972;2023-02-28T04:41:32;10.60;;;3.15;;
50781;SDS011;36749;37.428;-121.972;2023-02-28T04:43:59;13.43;;;3.55;;
50781;SDS011;36749;37.428;-121.972;2023-02-28T04:46:28;14.98;;;4.15;;
50781;SDS011;36749;37.428;-121.972;2023-02-28T04:48:55;11.95;;;3.58;;
50781;SDS011;36749;37.428;-121.972;2023-02-28T04:51:21;15.18;;;4.00;;
50781;SDS011;36749;37.428;-121.972;2023-02-28T04:53:48;14.32;;;4.28;;
50781;SDS011;36749;37.428;-121.972;2023-02-28T04:56:15;13.85;;;3.47;;
50781;SDS011;36749;37.428;-121.972;2023-02-28T04:58:42;9.35;;;2.85;;
50781;SDS011;36749;37.428;-121.972;2023-02-28T05:01:25;19.10;;;3.30;;
50781;SDS011;36749;37.428;-121.972;2023-02-28T05:03:54;12.95;;;3.85;;
50781;SDS011;36749;37.428;-121.972;2023-02-28T05:06:22;13.50;;;3.08;;
50781;SDS011;36749;37.428;-121.972;2023-02-28T05:08:49;11.48;;;3.92;;
50781;SDS011;36749;37.428;-121.972;2023-02-28T05:11:17;14.70;;;3.50;;
50781;SDS011;36749;37.428;-121.972;2023-02-28T05:13:47;19.25;;;4.18;;
50781;SDS011;36749;37.428;-121.972;2023-02-28T05:16:14;13.57;;;3.92;;
50781;SDS011;36749;37.428;-121.972;2023-02-28T05:18:40;12.75;;;3.22;;
50781;SDS011;36749;37.428;-121.972;2023-02-28T05:21:16;9.77;;;3.58;;
50781;SDS011;36749;37.428;-121.972;2023-02-28T05:23:45;10.15;;;3.13;;
50781;SDS011;36749;37.428;-121.972;2023-02-28T05:26:11;14.45;;;3.33;;
50781;SDS011;36749;37.428;-121.972;2023-02-28T05:28:38;11.68;;;3.45;;
50781;SDS011;36749;37.428;-121.972;2023-02-28T05:31:04;11.57;;;2.78;;
50781;SDS011;36749;37.428;-121.972;2023-02-28T05:33:30;12.95;;;3.00;;
50781;SDS011;36749;37.428;-121.972;2023-02-28T05:35:56;19.90;;;3.50;;
50781;SDS011;36749;37.428;-121.972;2023-02-28T05:38:25;17.63;;;4.57;;
50781;SDS011;36749;37.428;-121.972;2023-02-28T05:40:52;12.55;;;3.67;;
50781;SDS011;36749;37.428;-121.972;2023-02-28T05:43:18;8.93;;;3.70;;
50781;SDS011;36749;37.428;-121.972;2023-02-28T05:45:44;10.55;;;3.13;;
50781;SDS011;36749;37.428;-121.972;2023-02-28T05:48:11;14.52;;;3.50;;
50781;SDS011;36749;37.428;-121.972;2023-02-28T05:50:37;14.98;;;3.25;;
50781;SDS011;36749;37.428;-121.972;2023-02-28T05:53:04;12.55;;;2.85;;
50781;SDS011;36749;37.428;-121.972;2023-02-28T05:55:30;11.15;;;3.35;;
50781;SDS011;36749;37.428;-121.972;2023-02-28T05:57:56;10.00;;;3.05;;
50781;SDS011;36749;37.428;-121.972;2023-02-28T06:00:22;8.15;;;3.42;;
50781;SDS011;36749;37.428;-121.972;2023-02-28T06:02:49;9.95;;;2.85;;
50781;SDS011;36749;37.428;-121.972;2023-02-28T06:05:17;7.90;;;2.83;;
50781;SDS011;36749;37.428;-121.972;2023-02-28T06:07:44;12.93;;;3.20;;
50781;SDS011;36749;37.428;-121.972;2023-02-28T06:10:11;12.48;;;3.38;;
50781;SDS011;36749;37.428;-121.972;2023-02-28T06:12:38;6.95;;;2.97;;
50781;SDS011;36749;37.428;-121.972;2023-02-28T06:15:04;12.13;;;3.55;;
50781;SDS011;36749;37.428;-121.972;2023-02-28T06:17:31;12.38;;;3.30;;
50781;SDS011;36749;37.428;-121.972;2023-02-28T06:19:57;17.60;;;4.07;;
50781;SDS011;36749;37.428;-121.972;2023-02-28T06:22:23;10.50;;;3.13;;
50781;SDS011;36749;37.428;-121.972;2023-02-28T06:24:49;8.93;;;2.58;;
50781;SDS011;36749;37.428;-121.972;2023-02-28T06:27:15;12.75;;;3.97;;
50781;SDS011;36749;37.428;-121.972;2023-02-28T06:29:42;10.43;;;3.03;;
50781;SDS011;36749;37.428;-121.972;2023-02-28T06:32:08;14.32;;;3.30;;
50781;SDS011;36749;37.428;-121.972;2023-02-28T06:34:34;17.23;;;3.47;;
50781;SDS011;36749;37.428;-121.972;2023-02-28T06:37:01;15.25;;;3.60;;
50781;SDS011;36749;37.428;-121.972;2023-02-28T06:39:28;8.32;;;3.58;;
50781;SDS011;36749;37.428;-121.972;2023-02-28T06:41:55;11.35;;;3.33;;
50781;SDS011;36749;37.428;-121.972;2023-02-28T06:44:22;11.95;;;3.25;;
50781;SDS011;36749;37.428;-121.972;2023-02-28T06:46:49;10.20;;;3.22;;
50781;SDS011;36749;37.428;-121.972;2023-02-28T06:49:15;11.05;;;2.40;;
50781;SDS011;36749;37.428;-121.972;2023-02-28T06:51:43;14.82;;;4.20;;
50781;SDS011;36749;37.428;-121.972;2023-02-28T06:54:12;13.15;;;3.25;;
50781;SDS011;36749;37.428;-121.972;2023-02-28T06:56:39;14.65;;;3.38;;
50781;SDS011;36749;37.428;-121.972;2023-02-28T06:59:05;13.60;;;3.33;;
50781;SDS011;36749;37.428;-121.972;2023-02-28T07:01:31;11.73;;;3.15;;
50781;SDS011;36749;37.428;-121.972;2023-02-28T07:03:58;10.63;;;2.63;;
50781;SDS011;36749;37.428;-121.972;2023-02-28T07:06:25;13.05;;;2.53;;
50781;SDS011;36749;37.428;-121.972;2023-02-28T07:08:52;13.75;;;3.63;;
50781;SDS011;36749;37.428;-121.972;2023-02-28T07:11:19;9.50;;;2.72;;
50781;SDS011;36749;37.428;-121.972;2023-02-28T07:13:48;13.93;;;3.42;;
50781;SDS011;36749;37.428;-121.972;2023-02-28T07:16:16;12.10;;;2.80;;
50781;SDS011;36749;37.428;-121.972;2023-02-28T07:18:42;13.80;;;2.97;;
50781;SDS011;36749;37.428;-121.972;2023-02-28T07:21:09;7.07;;;2.60;;
50781;SDS011;36749;37.428;-121.972;2023-02-28T07:23:36;9.52;;;2.72;;
50781;SDS011;36749;37.428;-121.972;2023-02-28T07:26:03;12.85;;;3.53;;
50781;SDS011;36749;37.428;-121.972;2023-02-28T07:28:30;13.15;;;2.75;;
50781;SDS011;36749;37.428;-121.972;2023-02-28T07:30:56;11.43;;;2.72;;
50781;SDS011;36749;37.428;-121.972;2023-02-28T07:33:23;11.68;;;4.15;;
50781;SDS011;36749;37.428;-121.972;2023-02-28T07:35:49;13.07;;;3.85;;
50781;SDS011;36749;37.428;-121.972;2023-02-28T07:38:15;9.32;;;3.70;;
50781;SDS011;36749;37.428;-121.972;2023-02-28T07:40:41;10.48;;;2.90;;
50781;SDS011;36749;37.428;-121.972;2023-02-28T07:43:07;9.50;;;3.15;;
50781;SDS011;36749;37.428;-121.972;2023-02-28T07:45:34;14.10;;;3.63;;
50781;SDS011;36749;37.428;-121.972;2023-02-28T07:48:00;10.88;;;3.63;;
50781;SDS011;36749;37.428;-121.972;2023-02-28T07:50:26;16.20;;;4.57;;
50781;SDS011;36749;37.428;-121.972;2023-02-28T07:52:56;12.35;;;4.20;;
50781;SDS011;36749;37.428;-121.972;2023-02-28T07:55:23;7.88;;;3.00;;
50781;SDS011;36749;37.428;-121.972;2023-02-28T07:57:50;11.32;;;2.83;;
50781;SDS011;36749;37.428;-121.972;2023-02-28T08:00:16;10.02;;;3.15;;
50781;SDS011;36749;37.428;-121.972;2023-02-28T08:02:42;10.38;;;3.05;;
50781;SDS011;36749;37.428;-121.972;2023-02-28T08:05:09;11.95;;;2.83;;
50781;SDS011;36749;37.428;-121.972;2023-02-28T08:07:35;10.90;;;2.45;;
50781;SDS011;36749;37.428;-121.972;2023-02-28T08:10:01;13.93;;;3.28;;
50781;SDS011;36749;37.428;-121.972;2023-02-28T08:12:27;12.82;;;3.08;;
50781;SDS011;36749;37.428;-121.972;2023-02-28T08:14:54;5.63;;;2.55;;
50781;SDS011;36749;37.428;-121.972;2023-02-28T08:17:20;13.88;;;3.10;;
50781;SDS011;36749;37.428;-121.972;2023-02-28T08:19:46;9.57;;;2.65;;
50781;SDS011;36749;37.428;-121.972;2023-02-28T08:22:12;10.70;;;3.00;;
50781;SDS011;36749;37.428;-121.972;2023-02-28T08:24:40;10.65;;;2.70;;
50781;SDS011;36749;37.428;-121.972;2023-02-28T08:27:08;9.65;;;3.03;;
50781;SDS011;36749;37.428;-121.972;2023-02-28T08:29:36;11.57;;;3.35;;
50781;SDS011;36749;37.428;-121.972;2023-02-28T08:32:04;14.43;;;3.42;;
50781;SDS011;36749;37.428;-121.972;2023-02-28T08:34:30;7.63;;;2.63;;
50781;SDS011;36749;37.428;-121.972;2023-02-28T08:36:57;7.93;;;2.75;;
50781;SDS011;36749;37.428;-121.972;2023-02-28T08:39:23;11.85;;;2.63;;
50781;SDS011;36749;37.428;-121.972;2023-02-28T08:41:49;13.13;;;3.50;;
50781;SDS011;36749;37.428;-121.972;2023-02-28T08:44:15;13.82;;;3.00;;
50781;SDS011;36749;37.428;-121.972;2023-02-28T08:46:41;12.98;;;2.92;;
50781;SDS011;36749;37.428;-121.972;2023-02-28T08:49:09;8.88;;;2.97;;
50781;SDS011;36749;37.428;-121.972;2023-02-28T08:51:36;9.52;;;2.92;;
50781;SDS011;36749;37.428;-121.972;2023-02-28T08:54:02;11.43;;;2.92;;
50781;SDS011;36749;37.428;-121.972;2023-02-28T08:56:28;13.73;;;2.80;;
50781;SDS011;36749;37.428;-121.972;2023-02-28T08:58:56;6.93;;;2.33;;
50781;SDS011;36749;37.428;-121.972;2023-02-28T09:01:23;9.88;;;2.30;;
50781;SDS011;36749;37.428;-121.972;2023-02-28T09:03:55;12.00;;;3.22;;
50781;SDS011;36749;37.428;-121.972;2023-02-28T09:06:22;9.00;;;3.15;;
50781;SDS011;36749;37.428;-121.972;2023-02-28T09:08:50;13.18;;;4.20;;
50781;SDS011;36749;37.428;-121.972;2023-02-28T09:11:16;13.45;;;2.97;;
50781;SDS011;36749;37.428;-121.972;2023-02-28T09:13:44;8.70;;;2.67;;
50781;SDS011;36749;37.428;-121.972;2023-02-28T09:16:12;6.82;;;2.40;;
50781;SDS011;36749;37.428;-121.972;2023-02-28T09:18:40;10.43;;;2.95;;
50781;SDS011;36749;37.428;-121.972;2023-02-28T09:21:07;7.90;;;2.53;;
50781;SDS011;36749;37.428;-121.972;2023-02-28T09:23:34;14.00;;;2.80;;
50781;SDS011;36749;37.428;-121.972;2023-02-28T09:26:03;7.65;;;2.83;;
50781;SDS011;36749;37.428;-121.972;2023-02-28T09:28:30;14.05;;;2.88;;
50781;SDS011;36749;37.428;-121.972;2023-02-28T09:30:56;10.95;;;2.90;;
50781;SDS011;36749;37.428;-121.972;2023-02-28T09:33:24;14.13;;;2.40;;
50781;SDS011;36749;37.428;-121.972;2023-02-28T09:35:56;11.25;;;2.80;;
50781;SDS011;36749;37.428;-121.972;2023-02-28T09:38:23;9.32;;;2.80;;
50781;SDS011;36749;37.428;-121.972;2023-02-28T09:40:51;7.60;;;2.40;;
50781;SDS011;36749;37.428;-121.972;2023-02-28T09:43:20;10.50;;;3.53;;
50781;SDS011;36749;37.428;-121.972;2023-02-28T09:45:50;13.00;;;2.80;;
50781;SDS011;36749;37.428;-121.972;2023-02-28T09:48:33;12.63;;;3.13;;
50781;SDS011;36749;37.428;-121.972;2023-02-28T09:51:04;20.70;;;3.58;;
50781;SDS011;36749;37.428;-121.972;2023-02-28T09:53:38;13.32;;;3.50;;
50781;SDS011;36749;37.428;-121.972;2023-02-28T09:56:20;14.20;;;3.45;;
50781;SDS011;36749;37.428;-121.972;2023-02-28T09:59:00;13.77;;;3.25;;
50781;SDS011;36749;37.428;-121.972;2023-02-28T10:01:43;14.55;;;3.78;;
50781;SDS011;36749;37.428;-121.972;2023-02-28T10:09:58;13.95;;;3.10;;
50781;SDS011;36749;37.428;-121.972;2023-02-28T10:12:26;14.43;;;3.47;;
50781;SDS011;36749;37.428;-121.972;2023-02-28T10:14:53;16.08;;;3.95;;
50781;SDS011;36749;37.428;-121.972;2023-02-28T10:17:21;15.13;;;3.97;;
50781;SDS011;36749;37.428;-121.972;2023-02-28T10:20:01;14.95;;;4.18;;
50781;SDS011;36749;37.428;-121.972;2023-02-28T10:22:38;10.70;;;2.97;;
50781;SDS011;36749;37.428;-121.972;2023-02-28T10:25:27;8.43;;;3.17;;
50781;SDS011;36749;37.428;-121.972;2023-02-28T10:27:57;14.38;;;3.13;;
50781;SDS011;36749;37.428;-121.972;2023-02-28T10:30:26;8.52;;;3.30;;
50781;SDS011;36749;37.428;-121.972;2023-02-28T10:32:53;14.15;;;2.90;;
50781;SDS011;36749;37.428;-121.972;2023-02-28T10:35:21;13.15;;;4.07;;
50781;SDS011;36749;37.428;-121.972;2023-02-28T10:37:49;12.18;;;3.00;;
50781;SDS011;36749;37.428;-121.972;2023-02-28T10:42:56;19.10;;;4.07;;
50781;SDS011;36749;37.428;-121.972;2023-02-28T10:45:23;10.77;;;3.05;;
50781;SDS011;36749;37.428;-121.972;2023-02-28T10:48:27;17.88;;;3.75;;
50781;SDS011;36749;37.428;-121.972;2023-02-28T10:51:18;14.45;;;3.60;;
50781;SDS011;36749;37.428;-121.972;2023-02-28T10:53:46;13.00;;;3.10;;
50781;SDS011;36749;37.428;-121.972;2023-02-28T10:56:20;13.10;;;2.85;;
50781;SDS011;36749;37.428;-121.972;2023-02-28T11:01:46;12.38;;;3.53;;
50781;SDS011;36749;37.428;-121.972;2023-02-28T11:07:20;15.25;;;3.30;;
50781;SDS011;36749;37.428;-121.972;2023-02-28T11:09:54;8.35;;;2.10;;
50781;SDS011;36749;37.428;-121.972;2023-02-28T11:15:02;15.55;;;3.35;;
50781;SDS011;36749;37.428;-121.972;2023-02-28T11:17:32;9.95;;;2.90;;
50781;SDS011;36749;37.428;-121.972;2023-02-28T11:20:04;13.18;;;3.35;;
50781;SDS011;36749;37.428;-121.972;2023-02-28T11:22:36;11.45;;;3.35;;
50781;SDS011;36749;37.428;-121.972;2023-02-28T11:25:15;14.70;;;2.65;;
50781;SDS011;36749;37.428;-121.972;2023-02-28T11:27:47;10.85;;;2.78;;
50781;SDS011;36749;37.428;-121.972;2023-02-28T11:30:28;10.10;;;2.88;;
50781;SDS011;36749;37.428;-121.972;2023-02-28T11:32:54;15.35;;;3.47;;
50781;SDS011;36749;37.428;-121.972;2023-02-28T11:35:28;15.32;;;3.80;;
50781;SDS011;36749;37.428;-121.972;2023-02-28T11:37:59;16.23;;;3.70;;
50781;SDS011;36749;37.428;-121.972;2023-02-28T11:43:40;10.90;;;3.08;;
50781;SDS011;36749;37.428;-121.972;2023-02-28T11:49:26;12.10;;;3.10;;
50781;SDS011;36749;37.428;-121.972;2023-02-28T11:57:53;14.93;;;2.50;;
50781;SDS011;36749;37.428;-121.972;2023-02-28T12:03:15;8.13;;;2.28;;
50781;SDS011;36749;37.428;-121.972;2023-02-28T12:22:55;7.63;;;2.70;;
50781;SDS011;36749;37.428;-121.972;2023-02-28T12:26:01;10.85;;;3.15;;
50781;SDS011;36749;37.428;-121.972;2023-02-28T12:28:37;7.60;;;2.55;;
50781;SDS011;36749;37.428;-121.972;2023-02-28T12:31:28;10.38;;;2.95;;
50781;SDS011;36749;37.428;-121.972;2023-02-28T12:33:56;9.90;;;2.47;;
50781;SDS011;36749;37.428;-121.972;2023-02-28T12:36:26;11.15;;;2.85;;
50781;SDS011;36749;37.428;-121.972;2023-02-28T12:38:55;8.95;;;2.97;;
50781;SDS011;36749;37.428;-121.972;2023-02-28T12:41:33;9.68;;;2.67;;
50781;SDS011;36749;37.428;-121.972;2023-02-28T12:44:08;6.57;;;2.15;;
50781;SDS011;36749;37.428;-121.972;2023-02-28T12:46:39;8.70;;;2.20;;
50781;SDS011;36749;37.428;-121.972;2023-02-28T12:49:09;9.43;;;2.25;;
50781;SDS011;36749;37.428;-121.972;2023-02-28T12:51:41;6.55;;;2.13;;
50781;SDS011;36749;37.428;-121.972;2023-02-28T12:54:12;11.85;;;2.50;;
50781;SDS011;36749;37.428;-121.972;2023-02-28T12:57:00;6.65;;;2.60;;
50781;SDS011;36749;37.428;-121.972;2023-02-28T13:04:57;7.18;;;2.30;;
50781;SDS011;36749;37.428;-121.972;2023-02-28T13:10:19;9.68;;;2.50;;
50781;SDS011;36749;37.428;-121.972;2023-02-28T13:12:53;6.72;;;1.88;;
50781;SDS011;36749;37.428;-121.972;2023-02-28T13:15:25;8.30;;;1.88;;
50781;SDS011;36749;37.428;-121.972;2023-02-28T13:17:58;6.72;;;1.90;;
50781;SDS011;36749;37.428;-121.972;2023-02-28T13:20:26;5.72;;;1.83;;
50781;SDS011;36749;37.428;-121.972;2023-02-28T13:23:00;8.80;;;2.15;;
50781;SDS011;36749;37.428;-121.972;2023-02-28T13:28:07;5.03;;;2.08;;
50781;SDS011;36749;37.428;-121.972;2023-02-28T13:36:00;9.27;;;2.03;;
50781;SDS011;36749;37.428;-121.972;2023-02-28T13:38:44;6.25;;;1.30;;
50781;SDS011;36749;37.428;-121.972;2023-02-28T13:44:02;5.13;;;1.60;;
50781;SDS011;36749;37.428;-121.972;2023-02-28T13:49:34;9.63;;;1.70;;
50781;SDS011;36749;37.428;-121.972;2023-02-28T14:02:54;8.10;;;1.83;;
50781;SDS011;36749;37.428;-121.972;2023-02-28T14:06:07;13.15;;;2.10;;
50781;SDS011;36749;37.428;-121.972;2023-02-28T14:11:48;7.88;;;1.98;;
50781;SDS011;36749;37.428;-121.972;2023-02-28T14:15:18;5.35;;;1.70;;
50781;SDS011;36749;37.428;-121.972;2023-02-28T14:17:14;6.13;;;1.73;;
50781;SDS011;36749;37.428;-121.972;2023-02-28T14:19:43;2.92;;;1.30;;
50781;SDS011;36749;37.428;-121.972;2023-02-28T14:27:35;5.35;;;1.63;;
50781;SDS011;36749;37.428;-121.972;2023-02-28T14:30:24;4.68;;;1.40;;
50781;SDS011;36749;37.428;-121.972;2023-02-28T14:35:40;3.28;;;1.27;;
50781;SDS011;36749;37.428;-121.972;2023-02-28T14:38:25;5.05;;;2.17;;
50781;SDS011;36749;37.428;-121.972;2023-02-28T14:41:04;7.05;;;2.10;;
50781;SDS011;36749;37.428;-121.972;2023-02-28T14:43:33;5.72;;;1.50;;
50781;SDS011;36749;37.428;-121.972;2023-02-28T14:46:02;6.88;;;1.50;;
50781;SDS011;36749;37.428;-121.972;2023-02-28T14:48:30;4.05;;;1.35;;
50781;SDS011;36749;37.428;-121.972;2023-02-28T14:50:57;3.95;;;1.33;;
50781;SDS011;36749;37.428;-121.972;2023-02-28T14:53:28;5.85;;;1.63;;
50781;SDS011;36749;37.428;-121.972;2023-02-28T14:55:56;6.32;;;1.70;;
50781;SDS011;36749;37.428;-121.972;2023-02-28T15:00:51;5.10;;;1.30;;
50781;SDS011;36749;37.428;-121.972;2023-02-28T15:03:20;4.68;;;1.10;;
50781;SDS011;36749;37.428;-121.972;2023-02-28T15:06:00;7.00;;;1.38;;
50781;SDS011;36749;37.428;-121.972;2023-02-28T15:08:31;7.70;;;1.55;;
50781;SDS011;36749;37.428;-121.972;2023-02-28T15:11:02;5.70;;;1.45;;
50781;SDS011;36749;37.428;-121.972;2023-02-28T15:13:40;9.70;;;2.28;;
50781;SDS011;36749;37.428;-121.972;2023-02-28T15:18:44;8.90;;;1.88;;
50781;SDS011;36749;37.428;-121.972;2023-02-28T15:21:13;7.65;;;1.80;;
50781;SDS011;36749;37.428;-121.972;2023-02-28T15:23:43;4.97;;;1.30;;
50781;SDS011;36749;37.428;-121.972;2023-02-28T15:26:18;8.13;;;1.48;;
50781;SDS011;36749;37.428;-121.972;2023-02-28T15:28:47;4.72;;;1.52;;
50781;SDS011;36749;37.428;-121.972;2023-02-28T15:31:50;7.65;;;2.47;;
50781;SDS011;36749;37.428;-121.972;2023-02-28T15:34:26;5.43;;;1.60;;
50781;SDS011;36749;37.428;-121.972;2023-02-28T15:37:23;1.88;;;1.33;;
50781;SDS011;36749;37.428;-121.972;2023-02-28T15:40:15;4.93;;;1.55;;
50781;SDS011;36749;37.428;-121.972;2023-02-28T15:42:56;13.48;;;2.38;;
50781;SDS011;36749;37.428;-121.972;2023-02-28T15:45:34;5.32;;;1.50;;
50781;SDS011;36749;37.428;-121.972;2023-02-28T15:48:15;7.63;;;1.90;;
50781;SDS011;36749;37.428;-121.972;2023-02-28T15:50:50;7.45;;;1.45;;
50781;SDS011;36749;37.428;-121.972;2023-02-28T15:53:47;11.65;;;1.83;;
50781;SDS011;36749;37.428;-121.972;2023-02-28T15:58:57;3.17;;;1.20;;
50781;SDS011;36749;37.428;-121.972;2023-02-28T16:01:26;7.43;;;1.60;;
50781;SDS011;36749;37.428;-121.972;2023-02-28T16:03:59;7.97;;;2.03;;
50781;SDS011;36749;37.428;-121.972;2023-02-28T16:09:02;5.70;;;1.38;;
50781;SDS011;36749;37.428;-121.972;2023-02-28T16:11:29;4.00;;;1.67;;
50781;SDS011;36749;37.428;-121.972;2023-02-28T16:13:56;3.38;;;1.65;;
50781;SDS011;36749;37.428;-121.972;2023-02-28T16:16:24;7.10;;;1.60;;
50781;SDS011;36749;37.428;-121.972;2023-02-28T16:18:52;4.63;;;1.70;;
50781;SDS011;36749;37.428;-121.972;2023-02-28T16:21:18;4.00;;;1.63;;
50781;SDS011;36749;37.428;-121.972;2023-02-28T16:23:44;4.35;;;1.27;;
50781;SDS011;36749;37.428;-121.972;2023-02-28T16:26:18;7.68;;;1.90;;
50781;SDS011;36749;37.428;-121.972;2023-02-28T16:28:47;4.22;;;1.30;;
50781;SDS011;36749;37.428;-121.972;2023-02-28T16:31:13;6.60;;;1.73;;
50781;SDS011;36749;37.428;-121.972;2023-02-28T16:33:42;3.03;;;1.10;;
50781;SDS011;36749;37.428;-121.972;2023-02-28T16:36:16;2.45;;;1.27;;
50781;SDS011;36749;37.428;-121.972;2023-02-28T16:38:44;3.67;;;1.60;;
50781;SDS011;36749;37.428;-121.972;2023-02-28T16:41:18;5.65;;;1.60;;
50781;SDS011;36749;37.428;-121.972;2023-02-28T16:43:46;5.32;;;1.67;;